Nearby METAR Reports

 

CWGT - Sisters Island (Auto)
Distance from station: NE 39km
Updated: 2019-07-17 11:00

 Wind from ESE
Wind: ESE 48 km/h
Temperature: 16°C
Dew Point: 14°C
Humidity: 88%
2019/07/17 18:00 CWGT 171800Z AUTO 11026KT 16/14 RMK AO1 PK WND 11031/1717 SLP067 T01550135 53007
CWGB - Ballenas Island (Auto)
Distance from station: ENE 47km
Updated: 2019-07-17 11:00

 Wind from ESE
Wind: ESE 39 km/h
Temperature: 17°C
Dew Point: 14°C
Humidity: 83%
2019/07/17 18:00 CWGB 171800Z AUTO 12021KT 17/14 RMK AO1 5004 PK WND 12030/1702 SLP069 T01660143 50004
CYQQ - CFB Comox
Distance from station: N 55km
Updated: 2019-07-17 11:00
Mostly cloudy
Mostly cloudy
 Wind from SSE
Wind: SSE 31 km/h, Gust: 41 km/h
Temperature: 18°C
Dew Point: 14°C
Humidity: 78%
Barometer: 1006.4 hPa
Clouds: Mostly cloudy
Visibility: 32 km
Cloud details: Few Clouds 427 m
Few Clouds 1006 m
Mostly cloudy 2195 m
Mostly cloudy 2743 m
2019/07/17 18:00 CYQQ 171800Z 15017G22KT 20SM FEW014 FEW033 BKN072 BKN090 18/14 A2972 RMK SC1SC1AC6AC1 SLP065
 
CYPW - Powell River Airport
Distance from station: NNE 69km
Updated: 2019-07-17 11:00
Mostly cloudy
Mostly cloudy
 Wind from ESE
Wind: ESE 30 km/h, Gust: 43 km/h
Temperature: 18°C
Dew Point: 15°C
Humidity: 83%
Barometer: 1007.5 hPa
Clouds: Mostly cloudy
Visibility: 32 km
Cloud details: Few Clouds 366 m
Partly cloudy 1067 m
Mostly cloudy 2042 m
2019/07/17 18:00 CYPW 171800Z 11016G23KT 080V150 20SM FEW012 SCT035 BKN067 18/15 A2975 RMK SF2SC2AC3 VIS N-NE 3 LO CLD BR SLP074 DENSITY ALT 1100FT
CYCD - Nanaimo Airport
Distance from station: ESE 70km
Updated: 2019-07-17 11:00
Mostly cloudy
Mostly cloudy
 Wind from SE
Wind: SE 15 km/h, Gust: 30 km/h
Temperature: 19°C
Dew Point: 15°C
Humidity: 78%
Barometer: 1007.5 hPa
Clouds: Mostly cloudy
Visibility: 24 km
Cloud details: Partly cloudy 1067 m
Mostly cloudy 1494 m
Mostly cloudy 3048 m
2019/07/17 18:00 CYCD 171800Z 13008G16KT 15SM SCT035 BKN049 BKN100 19/15 A2975 RMK SC3SC2AC2 SLP077 DENSITY ALT 800FT
CYAZ - Tofino Airport
Distance from station: WSW 73km
Updated: 2019-07-17 11:37
Light rain, Mist, Overcast
Light rain, Mist, Overcast
 Wind from W
Wind: W 15 km/h
Temperature: 16°C
Dew Point: 14°C
Humidity: 88%
Barometer: 1009.5 hPa
Summary: Light rain, Mist
Clouds: Overcast
Visibility: 8 km
Cloud details: Mostly cloudy 213 m
Overcast 457 m
2019/07/17 18:37 CYAZ 171837Z 28008KT 5SM -RA BR BKN007 OVC015 16/14 A2981 RMK ST5SC3 VIS SW 11/2SM SLP095 DENSITY ALT 400FT
 
CWEL - Entrance Island (Auto)
Distance from station: E 73km
Updated: 2019-07-17 11:00

 Wind from SSE
Wind: SSE 28 km/h
Temperature: 17°C
Dew Point: 15°C
Humidity: 88%
2019/07/17 18:00 CWEL 171800Z AUTO 15015KT 17/15 RMK AO1 8003 PK WND 16023/1703 SLP076 T01700149 50010
CYBL - Campbell River Airport
Distance from station: NNW 88km
Updated: 2019-07-17 11:34
Light rain, Showers, Mostly cloudy
Light rain, Showers, Mostly cloudy
 Wind from E
Wind: E 13 km/h
Temperature: 18°C
Dew Point: 15°C
Humidity: 83%
Barometer: 1006.8 hPa
Summary: Light rain, Showers
Clouds: Mostly cloudy
Visibility: 19 km
Cloud details: Partly cloudy 396 m
Mostly cloudy 914 m
Mostly cloudy 1829 m
2019/07/17 18:34 CYBL 171834Z 10007KT 12SM -SHRA SCT013 BKN030 BKN060 18/15 A2973 RMK SC3SC2SC2 CU ASOCTD SLP070 DENSITY ALT 1000FT
CWKH - Malahat Highway (Auto)
Distance from station: SE 116km
Updated: 2019-07-17 11:00

 
Temperature: 14°C
Dew Point: 12°C
Humidity: 88%
2019/07/17 18:00 CWKH 171800Z AUTO 14/12 RMK AO1 SLP085 T01390124 58002
 
CYVR - Vancouver Intl Airport
Distance from station: E 118km
Updated: 2019-07-17 11:00
Overcast
Overcast
 Wind from SE
Wind: SE 20 km/h, Gust: 31 km/h
Temperature: 17°C
Dew Point: 15°C
Humidity: 88%
Barometer: 1009.1 hPa
Clouds: Overcast
Visibility: 24 km
Cloud details: Few Clouds 244 m
Partly cloudy 396 m
Mostly cloudy 488 m
Overcast 1006 m
2019/07/17 18:00 CYVR 171800Z 14011G17KT 15SM FEW008 SCT013 BKN016 OVC033 17/15 A2980 RMK CF1SC2SC3SC2 SLP092 DENSITY ALT 400FT
CYYJ - Victoria Intl Airport
Distance from station: ESE 120km
Updated: 2019-07-17 11:00
Mostly cloudy
Mostly cloudy
 Wind from SSE
Wind: SSE 26 km/h
Temperature: 17°C
Dew Point: 16°C
Humidity: 94%
Barometer: 1009.1 hPa
Clouds: Mostly cloudy
Visibility: 19 km
Cloud details: Few Clouds 152 m
Few Clouds 305 m
Few Clouds 914 m
Mostly cloudy 1585 m
Mostly cloudy 2286 m
2019/07/17 18:00 CYYJ 171800Z 16014KT 12SM FEW005 FEW010 FEW030 BKN052 BKN075 17/16 A2980 RMK SF1SC1SC1SC4AC1 SF TR SLP091 DENSITY ALT 500FT
CWEB - Estevan Pt. (Auto)
Distance from station: W 129km
Updated: 2019-07-17 11:00

 Wind from WNW
Wind: WNW 20 km/h
Temperature: 17°C
Dew Point: 15°C
Humidity: 88%
2019/07/17 18:00 CWEB 171800Z AUTO 29011KT 17/15 RMK AO1 1009 SLP090 T01650151 50051
 
CWQK - Race Rocks (Auto)
Distance from station: SE 138km
Updated: 2019-07-17 11:00

 Wind from NW
Wind: NW 6 km/h
Temperature: 14°C
Dew Point: 14°C
Humidity: 100%
2019/07/17 18:00 CWQK 171800Z AUTO 31003KT 14/14 RMK AO1 SLP100 T01430136 53003
CWAE - Whistler
Distance from station: NE 167km
Updated: 2019-07-17 11:00
Light rain, Overcast
Light rain, Overcast
 Wind from calm
Wind: Calm
Temperature: 13°C
Dew Point: 12°C
Humidity: 94%
Barometer: 1007.8 hPa
Summary: Light rain
Clouds: Overcast
Visibility: 24 km
Cloud details: Mostly cloudy 274 m
Overcast 1036 m
2019/07/17 18:00 CWAE 171800Z 00000KT 15SM -RA BKN009 OVC034 13/12 A2976 RMK SC6SC2 WND ESTD SLP074 DENSITY ALT 2600FT
CYZT - Port Hardy Airport
Distance from station: NW 244km
Updated: 2019-07-17 11:00
Nearby showers, Overcast
Nearby showers, Overcast
 Wind from SW
Wind: SW 20 km/h, Gust: 31 km/h
Temperature: 18°C
Dew Point: 13°C
Humidity: 73%
Barometer: 1006.1 hPa
Summary: Nearby Showers
Clouds: Overcast
Visibility: 32 km
Cloud details: Partly cloudy 610 m
Mostly cloudy 1829 m
Overcast 3658 m
2019/07/17 18:00 CYZT 171800Z 23011G17KT 190V260 20SM VCSH SCT020 BKN060 OVC120 18/13 A2971 RMK CU4SC2AC2 SLP061 DENSITY ALT 800FT
 
CWRU - Solander Isl (Auto)
Distance from station: WNW 247km
Updated: 2019-07-17 11:00

 Wind from W
Wind: W 30 km/h
Temperature: 14°C
2019/07/17 18:00 CWRU 171800Z AUTO 27016KT 14/ RMK AO1 8PAST HR 1009 PK WND 26022/1746 SLP078 P0003 T0136 50014